Crook, United Kingdom
Current Conditions -  °F | °C
As of 9:50 PM on Friday 28 Nov 2014 (Local Time) from EGNV Reporting Station
Drizzle Drizzle  
Wind Chill: 45°   Ceiling: 700
Heat Index: 48°   Visibility: 2.5mi
Dew Point: 46°   Wind: 7mph
Humidity: 93%   Direction: 90°E
Pressure: 29.85"   Gusts: NA
Location:  54.71°N, 1.69°W
Report Text: EGNV 282150Z 09006KT 4000 -DZ BR SCT005 BKN007 09/08 Q1011
Loading
Personal Weather Stations






























Interactive Weather Map New forecast layout! Learn more

10-Day Weather Forecast

Advertisements
Track Severe Weather on mobile